Terminal Aerodrome Forecast
Issued by NWS Shreveport, LA

Home | Current Version | Previous Version | Text Only | Print | Product List | Glossary On
Versions: 1 2 3 4 5 6 7 8 9 10 11 12 13 14 15 16 17 18 19 20 21 22
000
FTUS44 KSHV 290544 AAA
TAFELD
TAF AMD
KELD 290544Z 2906/3006 16014G22KT P6SM OVC025
     FM290800 14012G18KT P6SM OVC020
      TEMPO 2909/2913 OVC012
     FM291400 15018G30KT P6SM SCT035
      TEMPO 2914/2917 14014G22KT BKN025
     FM300500 15018KT P6SM -TSRA OVC025CB=

USA.gov is the U.S. government's official web portal to all federal, state and local government web resources and services.